Time;durP1;ratioP1;P1;durP2;ratioP2;P2;SDS_P1;SDS_P2;PMS_P1;PMS_P2;Temp;Humidity;BMP_temperature;BMP_pressure;BME280_temperature;BME280_humidity;BME280_pressure;Samples;Min_cycle;Max_cycle;Signal;HPM_P1;HPM_P2
2022/03/10 00:00:32;;;;;;;19.42;12.40;;;;;;;-0.03;63.66;102277.94;7397740;19;20015;-66
2022/03/10 00:03:00;;;;;;;18.10;11.82;;;;;;;-0.06;63.70;102282.09;7393438;19;20022;-66
2022/03/10 00:05:28;;;;;;;22.30;13.20;;;;;;;-0.11;63.84;102283.59;7395638;19;20027;-67
2022/03/10 00:07:59;;;;;;;23.33;13.38;;;;;;;-0.16;63.83;102285.94;7397096;19;20511;-67
2022/03/10 00:10:27;;;;;;;25.42;15.35;;;;;;;-0.21;63.98;102287.44;7397745;19;20018;-66
2022/03/10 00:12:55;;;;;;;29.40;17.70;;;;;;;-0.26;64.04;102288.91;7395805;19;20373;-66
2022/03/10 00:15:25;;;;;;;36.65;19.23;;;;;;;-0.31;64.23;102290.38;7397141;19;20014;-66
2022/03/10 00:17:55;;;;;;;36.30;20.40;;;;;;;-0.35;64.32;102294.50;7397070;19;20035;-66
2022/03/10 00:20:24;;;;;;;47.15;22.02;;;;;;;-0.39;64.58;102288.31;7394832;19;20010;-66
2022/03/10 00:22:55;;;;;;;48.63;23.25;;;;;;;-0.41;64.63;102295.09;7395533;19;20015;-67
2022/03/10 00:25:26;;;;;;;40.60;20.90;;;;;;;-0.42;64.55;102298.47;7397225;19;20033;-67
2022/03/10 00:27:54;;;;;;;38.58;19.88;;;;;;;-0.44;64.51;102304.34;7397197;19;20035;-67
2022/03/10 00:30:22;;;;;;;38.28;20.65;;;;;;;-0.47;64.81;102307.66;7395088;19;20014;-67
2022/03/10 00:32:52;;;;;;;37.10;19.65;;;;;;;-0.53;64.88;102316.00;7395696;19;20023;-67
2022/03/10 00:35:22;;;;;;;34.53;19.15;;;;;;;-0.58;64.90;102314.91;7396544;19;20022;-67
2022/03/10 00:37:51;;;;;;;28.88;16.08;;;;;;;-0.61;65.26;102319.88;7396524;19;20019;-67
2022/03/10 00:40:19;;;;;;;29.88;15.80;;;;;;;-0.63;65.25;102321.53;7394708;19;20019;-67
2022/03/10 00:42:50;;;;;;;23.77;15.40;;;;;;;-0.65;65.28;102315.41;7395098;19;20019;-67
2022/03/10 00:45:19;;;;;;;24.42;14.60;;;;;;;-0.68;65.22;102320.41;7395101;19;20035;-67
2022/03/10 00:47:49;;;;;;;23.15;14.30;;;;;;;-0.70;65.24;102329.75;7396179;19;20018;-67
2022/03/10 00:50:17;;;;;;;25.42;15.27;;;;;;;-0.74;65.32;102320.09;7394370;19;20015;-67
2022/03/10 00:52:47;;;;;;;28.98;14.70;;;;;;;-0.77;65.39;102322.50;7394293;19;20018;-67
2022/03/10 00:55:19;;;;;;;24.67;14.60;;;;;;;-0.79;65.50;102321.56;7395941;19;20018;-67
2022/03/10 00:57:51;;;;;;;23.73;15.23;;;;;;;-0.82;65.61;102322.31;7396182;19;20028;-67
2022/03/10 01:00:21;;;;;;;25.25;15.05;;;;;;;-0.84;65.70;102321.34;7396174;19;20010;-67
2022/03/10 01:02:50;;;;;;;20.58;14.40;;;;;;;-0.88;66.00;102322.00;7394573;19;20019;-67
2022/03/10 01:05:18;;;;;;;23.50;14.38;;;;;;;-0.90;65.80;102321.88;7395605;19;20022;-67
2022/03/10 01:07:46;;;;;;;22.40;13.55;;;;;;;-0.92;66.04;102328.69;7393892;19;20035;-67
2022/03/10 01:10:16;;;;;;;21.67;15.48;;;;;;;-0.95;66.21;102331.06;7393851;19;20014;-67
2022/03/10 01:12:45;;;;;;;24.65;15.70;;;;;;;-0.97;66.21;102330.13;7394293;19;20082;-67
2022/03/10 01:15:17;;;;;;;24.13;15.25;;;;;;;-0.99;66.22;102326.59;7395335;19;20074;-67
2022/03/10 01:17:46;;;;;;;22.08;14.88;;;;;;;-1.01;66.19;102334.25;7395046;19;20383;-67
2022/03/10 01:20:15;;;;;;;24.63;14.13;;;;;;;-1.06;66.41;102333.13;7394211;19;20020;-67
2022/03/10 01:22:43;;;;;;;17.85;12.63;;;;;;;-1.06;66.41;102334.78;7393843;19;20018;-67
2022/03/10 01:25:12;;;;;;;20.45;12.98;;;;;;;-1.09;66.66;102337.22;7394075;19;20025;-67
2022/03/10 01:27:41;;;;;;;21.95;12.35;;;;;;;-1.12;66.59;102340.53;7395111;19;20371;-67
2022/03/10 01:30:12;;;;;;;17.73;12.27;;;;;;;-1.14;66.81;102344.69;7393135;19;20483;-65
2022/03/10 01:32:44;;;;;;;20.58;12.25;;;;;;;-1.16;66.63;102347.22;7393117;19;20022;-66
2022/03/10 01:35:13;;;;;;;16.95;11.20;;;;;;;-1.17;66.87;102339.41;7395219;19;20018;-66
2022/03/10 01:37:41;;;;;;;18.73;10.88;;;;;;;-1.16;66.86;102341.19;7394770;19;20014;-67
2022/03/10 01:40:12;;;;;;;16.05;11.63;;;;;;;-1.18;66.56;102335.94;7394622;19;20014;-66
2022/03/10 01:42:41;;;;;;;16.23;11.02;;;;;;;-1.19;66.88;102329.03;7392900;19;20018;-66
2022/03/10 01:45:12;;;;;;;15.85;11.02;;;;;;;-1.20;66.91;102332.41;7394578;19;20018;-67
2022/03/10 01:47:43;;;;;;;18.40;11.90;;;;;;;-1.22;66.99;102330.56;7394974;19;20018;-68
2022/03/10 01:50:14;;;;;;;18.05;11.93;;;;;;;-1.25;66.79;102331.28;7392698;19;20041;-67
2022/03/10 01:52:43;;;;;;;20.98;13.48;;;;;;;-1.27;66.87;102329.44;7393652;19;20082;-67
2022/03/10 01:55:12;;;;;;;23.02;12.40;;;;;;;-1.31;66.87;102328.38;7394230;19;20022;-67
2022/03/10 01:57:43;;;;;;;17.30;12.40;;;;;;;-1.33;67.17;102329.97;7394099;19;20031;-67
2022/03/10 02:00:12;;;;;;;17.77;12.63;;;;;;;-1.36;67.08;102329.84;7393781;19;20365;-67
2022/03/10 02:02:43;;;;;;;20.13;13.75;;;;;;;-1.38;67.30;102328.84;7393034;19;20019;-67
2022/03/10 02:05:12;;;;;;;22.98;14.15;;;;;;;-1.42;67.11;102337.22;7392471;19;20022;-67
2022/03/10 02:10:22;;;;;;;22.45;14.35;;;;;;;-1.48;67.38;102336.09;7394028;19;20494;-67
2022/03/10 02:12:52;;;;;;;21.00;14.40;;;;;;;-1.51;67.39;102333.34;7394461;19;20037;-70
2022/03/10 02:18:11;;;;;;;16.70;10.98;;;;;;;-1.55;67.77;102336.56;7390056;19;20456;-66
2022/03/10 02:20:41;;;;;;;14.90;10.73;;;;;;;-1.60;67.76;102332.88;7392749;19;20020;-66
2022/03/10 02:23:13;;;;;;;19.33;10.73;;;;;;;-1.61;67.94;102346.53;7391027;19;20420;-67
2022/03/10 02:25:43;;;;;;;14.73;10.70;;;;;;;-1.65;67.94;102347.19;7396648;19;20479;-67
2022/03/10 02:28:11;;;;;;;17.67;10.90;;;;;;;-1.70;67.84;102346.06;7400324;19;20363;-67
2022/03/10 02:30:40;;;;;;;14.43;10.20;;;;;;;-1.75;68.26;102344.91;7398154;19;20015;-68
2022/03/10 02:33:08;;;;;;;15.13;10.00;;;;;;;-1.78;68.26;102344.72;7399054;19;20019;-68
2022/03/10 02:35:37;;;;;;;14.40;10.27;;;;;;;-1.80;68.44;102355.81;7400463;19;20027;-68
2022/03/10 02:38:05;;;;;;;16.45;10.25;;;;;;;-1.83;68.56;102350.53;7397896;19;20022;-67
2022/03/10 02:40:36;;;;;;;15.13;10.02;;;;;;;-1.86;68.45;102352.03;7397800;19;20051;-66
2022/03/10 02:43:05;;;;;;;15.35;10.43;;;;;;;-1.88;68.43;102357.09;7397189;19;20590;-69
2022/03/10 02:45:33;;;;;;;17.50;10.90;;;;;;;-1.90;68.69;102356.13;7400234;19;20019;-66
2022/03/10 02:48:01;;;;;;;16.70;10.80;;;;;;;-1.94;68.76;102354.19;7397559;19;20027;-66
2022/03/10 02:50:29;;;;;;;19.65;12.10;;;;;;;-1.95;68.61;102351.53;7400110;19;20022;-66
2022/03/10 02:52:57;;;;;;;17.50;11.52;;;;;;;-1.98;69.09;102367.69;7397460;19;20014;-65
2022/03/10 02:55:25;;;;;;;19.85;11.48;;;;;;;-2.02;68.77;102373.44;7399784;19;20019;-66
2022/03/10 02:57:56;;;;;;;19.25;12.52;;;;;;;-2.04;68.87;102380.22;7397466;19;20031;-66
2022/03/10 03:00:24;;;;;;;17.60;11.38;;;;;;;-2.09;69.18;102374.78;7397659;19;20028;-66
2022/03/10 03:02:52;;;;;;;16.00;10.60;;;;;;;-2.11;69.37;102381.56;7398260;19;20031;-69
2022/03/10 03:05:20;;;;;;;15.98;9.82;;;;;;;-2.16;69.53;102376.13;7399548;19;20019;-66
2022/03/10 03:07:49;;;;;;;15.40;10.02;;;;;;;-2.17;69.56;102382.06;7396775;19;20492;-67
2022/03/10 03:10:18;;;;;;;17.10;10.10;;;;;;;-2.20;69.66;102383.59;7399328;19;20014;-66
2022/03/10 03:12:48;;;;;;;15.25;9.65;;;;;;;-2.23;69.45;102381.72;7396789;19;20023;-66
2022/03/10 03:15:20;;;;;;;16.10;9.90;;;;;;;-2.27;69.70;102382.34;7402076;19;20019;-67
2022/03/10 03:17:49;;;;;;;20.33;10.48;;;;;;;-2.31;69.62;102386.44;7401420;19;20015;-66
2022/03/10 03:20:18;;;;;;;15.73;9.70;;;;;;;-2.32;69.67;102388.94;7400900;19;20126;-67
2022/03/10 03:22:46;;;;;;;14.50;9.63;;;;;;;-2.35;69.67;102378.44;7397390;19;20018;-66
2022/03/10 03:25:17;;;;;;;16.33;10.13;;;;;;;-2.37;69.84;102383.50;7398819;19;20031;-66
2022/03/10 03:27:45;;;;;;;15.90;10.73;;;;;;;-2.39;69.78;102386.78;7396619;19;20018;-66
2022/03/10 03:30:14;;;;;;;16.52;9.98;;;;;;;-2.41;69.59;102386.72;7396072;19;20362;-67
2022/03/10 03:32:45;;;;;;;17.73;10.23;;;;;;;-2.45;69.77;102382.19;7396352;19;20015;-66
2022/03/10 03:35:13;;;;;;;17.92;10.40;;;;;;;-2.41;69.88;102386.72;7396068;19;20035;-65
2022/03/10 03:37:42;;;;;;;17.13;11.18;;;;;;;-2.41;69.77;102390.94;7394308;19;20019;-64
2022/03/10 03:40:12;;;;;;;19.10;10.88;;;;;;;-2.42;70.09;102384.94;7396124;19;20022;-64
2022/03/10 03:42:40;;;;;;;15.70;10.73;;;;;;;-2.42;70.00;102396.91;7396015;19;20014;-66
2022/03/10 03:45:09;;;;;;;16.60;10.75;;;;;;;-2.44;70.02;102394.22;7396176;19;20038;-66
2022/03/10 03:47:38;;;;;;;19.27;10.85;;;;;;;-2.44;70.23;102401.06;7396432;19;20018;-66
2022/03/10 03:50:10;;;;;;;16.05;10.90;;;;;;;-2.46;70.10;102393.28;7397649;19;20377;-65
2022/03/10 03:52:38;;;;;;;19.30;11.93;;;;;;;-2.47;70.50;102400.06;7397351;19;20022;-66
2022/03/10 03:55:07;;;;;;;23.25;12.65;;;;;;;-2.48;70.15;102408.59;7397446;19;20479;-65
2022/03/10 03:57:35;;;;;;;19.65;12.13;;;;;;;-2.50;70.54;102401.59;7395727;19;20018;-65
2022/03/10 04:00:03;;;;;;;17.35;11.90;;;;;;;-2.53;70.52;102407.41;7397674;19;20479;-66
2022/03/10 04:02:33;;;;;;;18.77;11.57;;;;;;;-2.55;70.66;102419.31;7396752;19;20030;-65
2022/03/10 04:05:01;;;;;;;21.00;12.27;;;;;;;-2.58;70.74;102421.69;7397394;19;20014;-65
2022/03/10 04:07:31;;;;;;;18.55;11.93;;;;;;;-2.60;70.88;102414.69;7395284;19;20346;-66
2022/03/10 04:10:09;;;;;;;17.73;11.23;;;;;;;-2.60;70.68;102422.41;7395817;19;20027;-65
2022/03/10 04:12:39;;;;;;;20.65;11.98;;;;;;;-2.61;71.07;102424.09;7396099;19;20482;-66
2022/03/10 04:15:08;;;;;;;19.20;12.30;;;;;;;-2.64;71.02;102424.78;7397228;19;20349;-65
2022/03/10 04:17:36;;;;;;;17.35;12.90;;;;;;;-2.66;70.91;102426.38;7396876;19;20018;-65
2022/03/10 04:20:08;;;;;;;17.65;12.25;;;;;;;-2.67;71.24;102436.56;7395455;19;20018;-66
2022/03/10 04:22:39;;;;;;;22.70;13.10;;;;;;;-2.69;71.13;102441.63;7395062;19;20506;-66
2022/03/10 04:25:08;;;;;;;20.88;13.48;;;;;;;-2.72;71.27;102433.72;7397130;19;20082;-66
2022/03/10 04:27:36;;;;;;;19.67;12.95;;;;;;;-2.73;71.27;102441.34;7394673;19;20354;-65
2022/03/10 04:30:06;;;;;;;22.60;13.43;;;;;;;-2.76;71.31;102431.78;7396076;19;20495;-65
2022/03/10 04:32:41;;;;;;;20.83;12.98;;;;;;;-2.76;71.45;102430.91;7394662;19;20045;-66
2022/03/10 04:35:10;;;;;;;24.10;14.27;;;;;;;-2.76;71.45;102433.47;7396026;19;20022;-65
2022/03/10 04:37:41;;;;;;;24.00;14.98;;;;;;;-2.76;71.66;102433.47;7394109;19;20507;-66
2022/03/10 04:40:17;;;;;;;24.92;16.50;;;;;;;-2.76;71.37;102431.78;7396341;19;20039;-65
2022/03/10 04:42:45;;;;;;;25.17;16.33;;;;;;;-2.73;71.54;102443.91;7394221;19;20015;-65
2022/03/10 04:45:13;;;;;;;24.15;15.77;;;;;;;-2.73;71.56;102438.78;7393925;19;20536;-66
2022/03/10 04:47:42;;;;;;;30.50;18.08;;;;;;;-2.73;71.55;102436.19;7393306;19;20480;-65
2022/03/10 04:50:13;;;;;;;25.42;17.33;;;;;;;-2.73;71.74;102442.25;7395339;19;20373;-65
2022/03/10 04:52:45;;;;;;;26.42;16.67;;;;;;;-2.74;71.77;102449.84;7395180;19;20014;-66
2022/03/10 04:55:14;;;;;;;30.00;18.02;;;;;;;-2.75;71.84;102454.09;7394518;19;20019;-65
2022/03/10 04:57:43;;;;;;;23.65;16.77;;;;;;;-2.76;71.91;102456.59;7395678;19;20051;-67
2022/03/10 05:00:16;;;;;;;31.00;18.48;;;;;;;-2.76;72.23;102461.72;7395380;19;20018;-65
2022/03/10 05:02:44;;;;;;;27.27;18.52;;;;;;;-2.76;72.08;102454.03;7394095;19;20029;-65
2022/03/10 05:05:13;;;;;;;24.63;17.83;;;;;;;-2.76;72.22;102456.59;7394196;19;20026;-66
2022/03/10 05:07:44;;;;;;;27.17;17.13;;;;;;;-2.77;72.10;102460.81;7395335;19;20010;-64
2022/03/10 05:10:14;;;;;;;25.55;17.42;;;;;;;-2.79;72.12;102471.00;7393732;19;20018;-65
2022/03/10 05:12:50;;;;;;;26.27;16.42;;;;;;;-2.80;72.29;102465.78;7394326;19;20029;-66
2022/03/10 05:15:22;;;;;;;29.67;18.00;;;;;;;-2.83;72.25;102465.59;7393123;19;20045;-65
2022/03/10 05:17:52;;;;;;;25.20;16.80;;;;;;;-2.85;72.17;102464.63;7392998;19;20023;-64
2022/03/10 05:20:21;;;;;;;26.88;17.80;;;;;;;-2.88;72.30;102459.28;7392612;19;20082;-65
2022/03/10 05:22:53;;;;;;;26.27;16.98;;;;;;;-2.87;72.40;102456.81;7392808;19;20035;-65
2022/03/10 05:25:23;;;;;;;28.63;17.67;;;;;;;-2.89;72.35;102458.41;7393071;19;20022;-65
2022/03/10 05:27:52;;;;;;;28.80;19.45;;;;;;;-2.88;72.32;102457.63;7393074;19;20346;-65
2022/03/10 05:30:22;;;;;;;32.17;18.67;;;;;;;-2.90;72.52;102453.19;7394580;19;20035;-66
2022/03/10 05:32:51;;;;;;;30.58;19.60;;;;;;;-2.86;72.50;102460.28;7393363;19;20026;-66
2022/03/10 05:35:20;;;;;;;31.00;18.70;;;;;;;-2.87;72.55;102458.50;7392042;19;20026;-66
2022/03/10 05:37:51;;;;;;;26.52;17.85;;;;;;;-2.88;72.60;102460.19;7392291;19;20015;-65
2022/03/10 05:40:22;;;;;;;28.88;19.00;;;;;;;-2.88;72.53;102462.75;7392472;19;20036;-64
2022/03/10 05:42:51;;;;;;;29.48;19.75;;;;;;;-2.88;73.10;102447.34;7393296;19;20045;-65
2022/03/10 05:45:20;;;;;;;30.65;18.13;;;;;;;-2.88;72.82;102455.06;7392427;19;20018;-65
2022/03/10 05:47:49;;;;;;;26.42;18.20;;;;;;;-2.89;72.79;102450.69;7394176;19;20022;-65
2022/03/10 05:50:17;;;;;;;33.53;18.90;;;;;;;-2.88;72.88;102462.75;7394076;19;20018;-65
2022/03/10 05:52:46;;;;;;;30.92;19.60;;;;;;;-2.86;72.92;102458.56;7392825;19;20031;-65
2022/03/10 05:55:18;;;;;;;31.02;19.58;;;;;;;-2.85;73.13;102454.34;7393200;19;20035;-66
2022/03/10 05:57:47;;;;;;;32.35;19.58;;;;;;;-2.85;73.29;102451.78;7393436;19;20018;-66
2022/03/10 06:00:16;;;;;;;29.52;18.17;;;;;;;-2.84;73.38;102454.44;7394680;19;20018;-65
2022/03/10 06:02:44;;;;;;;33.38;19.52;;;;;;;-2.82;73.38;102464.78;7396897;19;20015;-65
2022/03/10 06:05:13;;;;;;;30.17;19.98;;;;;;;-2.82;73.36;102468.28;7398142;19;20022;-66
2022/03/10 06:07:42;;;;;;;28.40;19.23;;;;;;;-2.80;73.55;102469.22;7399592;19;20021;-65
2022/03/10 06:10:34;;;;;;;32.28;19.75;;;;;;;-2.76;73.35;102472.00;7400384;19;20352;-66
2022/03/10 06:13:02;;;;;;;37.47;20.67;;;;;;;-2.75;73.43;102474.66;7399593;19;20039;-66
2022/03/10 06:15:30;;;;;;;34.25;19.75;;;;;;;-2.72;73.37;102474.81;7396997;19;20019;-67
2022/03/10 06:17:59;;;;;;;34.95;19.08;;;;;;;-2.70;73.65;102477.50;7396449;19;20475;-65
2022/03/10 06:20:40;;;;;;;31.40;19.95;;;;;;;-2.67;73.69;102480.25;7395561;19;20014;-67
2022/03/10 06:23:08;;;;;;;31.17;20.05;;;;;;;-2.64;73.70;102480.47;7396144;19;20018;-65
2022/03/10 06:25:40;;;;;;;46.20;24.77;;;;;;;-2.62;73.53;102484.91;7396164;19;20352;-65
2022/03/10 06:28:08;;;;;;;76.78;38.95;;;;;;;-2.57;73.88;102484.28;7400702;19;20027;-65
2022/03/10 06:30:36;;;;;;;34.53;20.50;;;;;;;-2.53;73.73;102489.66;7399873;19;20365;-66
2022/03/10 06:33:05;;;;;;;36.40;20.95;;;;;;;-2.50;73.76;102482.16;7398656;19;20022;-64
2022/03/10 06:35:33;;;;;;;31.90;18.98;;;;;;;-2.47;73.60;102484.03;7397642;19;20036;-66
2022/03/10 06:38:01;;;;;;;32.38;18.90;;;;;;;-2.42;73.80;102494.59;7399628;19;20022;-65
2022/03/10 06:40:29;;;;;;;34.10;19.67;;;;;;;-2.39;73.76;102493.09;7400003;19;20011;-66
2022/03/10 06:43:00;;;;;;;30.95;20.08;;;;;;;-2.34;73.76;102495.91;7397844;19;20395;-65
2022/03/10 06:45:28;;;;;;;30.63;18.83;;;;;;;-2.28;73.95;102495.41;7397447;19;20391;-65
2022/03/10 06:47:57;;;;;;;31.05;19.70;;;;;;;-2.25;74.00;102504.19;7397521;19;20023;-65
2022/03/10 06:50:25;;;;;;;36.90;18.77;;;;;;;-2.19;73.99;102501.97;7400182;19;20018;-67
2022/03/10 06:52:56;;;;;;;42.58;21.55;;;;;;;-2.17;73.64;102492.66;7398319;19;20018;-66
2022/03/10 06:55:24;;;;;;;41.28;20.63;;;;;;;-2.07;73.84;102494.09;7399543;19;20479;-65
2022/03/10 06:57:53;;;;;;;41.20;21.63;;;;;;;-2.05;74.16;102489.03;7399176;19;20035;-65
2022/03/10 07:00:24;;;;;;;36.35;20.10;;;;;;;-1.96;74.29;102502.41;7396188;19;20402;-67
2022/03/10 07:02:53;;;;;;;41.45;22.15;;;;;;;-1.85;74.55;102503.91;7396900;19;20035;-64
2022/03/10 07:05:21;;;;;;;37.45;21.13;;;;;;;-1.74;74.32;102509.69;7396560;19;20011;-65
2022/03/10 07:07:49;;;;;;;35.28;19.60;;;;;;;-1.64;74.50;102512.00;7398233;19;20022;-64
2022/03/10 07:10:18;;;;;;;39.08;20.23;;;;;;;-1.54;74.34;102521.13;7398332;19;20483;-65
2022/03/10 07:12:46;;;;;;;33.38;19.60;;;;;;;-1.44;73.94;102516.47;7397207;19;20035;-65
2022/03/10 07:15:14;;;;;;;34.25;19.75;;;;;;;-1.37;73.85;102516.91;7398751;19;20028;-66
2022/03/10 07:17:45;;;;;;;35.63;20.30;;;;;;;-1.28;73.69;102513.94;7395905;19;20026;-66
2022/03/10 07:20:14;;;;;;;32.13;19.10;;;;;;;-1.20;73.71;102511.78;7397611;19;20515;-65
2022/03/10 07:22:43;;;;;;;33.42;20.63;;;;;;;-1.12;73.60;102517.41;7395281;19;20021;-65
2022/03/10 07:25:11;;;;;;;30.10;19.23;;;;;;;-1.05;73.55;102509.19;7395324;19;20476;-66
2022/03/10 07:27:40;;;;;;;38.00;19.67;;;;;;;-0.95;73.39;102506.28;7397744;19;20024;-65
2022/03/10 07:30:09;;;;;;;50.47;21.27;;;;;;;-0.88;73.29;102513.56;7397651;19;20006;-65
2022/03/10 07:32:38;;;;;;;32.58;20.15;;;;;;;-0.78;73.21;102514.03;7396880;19;20015;-65
2022/03/10 07:35:09;;;;;;;35.25;20.30;;;;;;;-0.70;73.32;102517.94;7398110;19;20035;-66
2022/03/10 07:37:37;;;;;;;37.45;21.73;;;;;;;-0.59;73.31;102519.38;7397125;19;20035;-65
2022/03/10 07:40:07;;;;;;;35.33;20.67;;;;;;;-0.50;73.06;102513.81;7398080;19;20027;-65
2022/03/10 07:42:35;;;;;;;36.58;22.50;;;;;;;-0.40;72.94;102520.34;7395687;19;20018;-65
2022/03/10 07:45:04;;;;;;;39.20;21.25;;;;;;;-0.30;72.93;102526.84;7396271;19;20014;-66
2022/03/10 07:47:32;;;;;;;36.28;20.00;;;;;;;-0.28;72.80;102515.78;7397572;19;20500;-65
2022/03/10 07:50:00;;;;;;;36.10;21.23;;;;;;;-0.12;72.63;102537.25;7397486;19;20425;-65
2022/03/10 07:52:31;;;;;;;36.38;20.23;;;;;;;-0.03;72.34;102535.13;7397087;19;20419;-64
2022/03/10 07:54:59;;;;;;;39.75;20.08;;;;;;;0.06;72.31;102540.72;7396294;19;20112;-64
2022/03/10 07:57:27;;;;;;;37.08;21.17;;;;;;;0.16;72.24;102539.50;7397835;19;20015;-65
2022/03/10 07:59:55;;;;;;;34.22;20.88;;;;;;;0.24;72.31;102534.72;7397395;19;20031;-65
2022/03/10 08:02:23;;;;;;;34.83;21.02;;;;;;;0.38;72.26;102540.56;7396676;19;20032;-66
2022/03/10 08:04:51;;;;;;;38.80;19.92;;;;;;;0.49;72.20;102539.41;7395002;19;20015;-66
2022/03/10 08:07:20;;;;;;;35.22;20.63;;;;;;;0.61;71.93;102537.41;7397108;19;20018;-65
2022/03/10 08:09:50;;;;;;;36.58;22.00;;;;;;;0.72;72.06;102532.78;7394928;19;20369;-65
2022/03/10 08:12:18;;;;;;;36.92;21.52;;;;;;;0.83;71.72;102537.56;7395060;19;20040;-66
2022/03/10 08:14:46;;;;;;;33.70;21.77;;;;;;;0.95;71.49;102539.00;7396765;19;20014;-66
2022/03/10 08:17:15;;;;;;;38.17;21.98;;;;;;;1.07;71.34;102536.09;7396735;19;20031;-67
2022/03/10 08:19:43;;;;;;;35.42;21.10;;;;;;;1.18;71.28;102535.72;7394965;19;20014;-66
2022/03/10 08:22:11;;;;;;;32.33;19.75;;;;;;;1.28;71.01;102536.19;7392986;19;20432;-66
2022/03/10 08:24:41;;;;;;;31.92;19.00;;;;;;;1.39;70.84;102546.16;7394964;19;20022;-65
2022/03/10 08:27:11;;;;;;;36.42;21.48;;;;;;;1.50;71.13;102544.94;7396944;19;20101;-64
2022/03/10 08:29:40;;;;;;;31.50;19.25;;;;;;;1.62;70.70;102552.38;7394589;19;20029;-66
2022/03/10 08:32:09;;;;;;;32.65;20.13;;;;;;;1.74;70.38;102542.53;7395836;19;20022;-66
2022/03/10 08:34:38;;;;;;;42.33;21.08;;;;;;;1.86;69.96;102544.78;7396149;19;20018;-66
2022/03/10 08:37:07;;;;;;;37.40;21.42;;;;;;;1.98;69.93;102543.53;7396119;19;20028;-65
2022/03/10 08:39:36;;;;;;;33.33;20.65;;;;;;;2.10;69.57;102539.75;7395981;19;20022;-65
2022/03/10 08:42:04;;;;;;;39.47;20.13;;;;;;;2.21;69.07;102539.31;7395972;19;20045;-65
2022/03/10 08:44:35;;;;;;;36.88;21.58;;;;;;;2.32;68.73;102545.81;7395375;19;20022;-67
2022/03/10 08:47:03;;;;;;;34.97;18.80;;;;;;;2.41;68.84;102540.13;7396628;19;20027;-66
2022/03/10 08:49:31;;;;;;;32.97;19.77;;;;;;;2.52;68.62;102544.06;7395683;19;20019;-66
2022/03/10 08:51:59;;;;;;;46.25;23.40;;;;;;;2.63;68.23;102544.50;7395048;19;20027;-65
2022/03/10 08:54:27;;;;;;;36.28;22.35;;;;;;;2.71;68.07;102549.97;7393794;19;20014;-66
2022/03/10 08:56:56;;;;;;;37.17;20.75;;;;;;;2.80;68.14;102541.69;7395975;19;20015;-65
2022/03/10 08:59:24;;;;;;;37.72;21.52;;;;;;;2.88;67.93;102546.34;7393365;19;20031;-65
2022/03/10 09:01:54;;;;;;;39.45;22.05;;;;;;;2.97;67.54;102551.00;7393030;19;20380;-65
2022/03/10 09:04:23;;;;;;;35.42;20.55;;;;;;;3.02;67.24;102543.38;7395840;19;20019;-65
2022/03/10 09:06:51;;;;;;;35.70;21.63;;;;;;;3.14;67.15;102549.03;7393542;19;20014;-65
2022/03/10 09:09:19;;;;;;;44.63;23.00;;;;;;;3.24;66.98;102551.16;7395259;19;20014;-66
2022/03/10 09:11:47;;;;;;;39.97;23.02;;;;;;;3.33;66.79;102550.63;7393351;19;20010;-65
2022/03/10 09:14:15;;;;;;;38.03;22.65;;;;;;;3.40;66.91;102543.97;7394475;19;20425;-65
2022/03/10 09:16:44;;;;;;;42.25;24.38;;;;;;;3.49;66.48;102553.78;7395010;19;20022;-65
2022/03/10 09:19:15;;;;;;;41.38;22.65;;;;;;;3.54;66.74;102547.06;7393071;19;20022;-66
2022/03/10 09:21:43;;;;;;;42.55;23.88;;;;;;;3.62;66.46;102545.63;7392397;19;20014;-66
2022/03/10 09:24:11;;;;;;;42.03;24.08;;;;;;;3.70;66.26;102548.47;7394725;19;20035;-65
2022/03/10 09:26:40;;;;;;;41.38;24.10;;;;;;;3.78;66.49;102546.16;7392998;19;20027;-65
2022/03/10 09:29:08;;;;;;;39.53;23.73;;;;;;;3.82;66.43;102538.53;7394483;19;20018;-65
2022/03/10 09:31:36;;;;;;;48.72;25.23;;;;;;;3.91;66.43;102544.03;7394546;19;20018;-64
2022/03/10 09:34:05;;;;;;;39.50;23.27;;;;;;;3.98;66.46;102547.75;7393405;19;20041;-66
2022/03/10 09:36:36;;;;;;;42.00;23.23;;;;;;;4.06;66.16;102543.69;7401541;19;20043;-66
2022/03/10 09:39:04;;;;;;;45.95;25.42;;;;;;;4.15;66.30;102542.25;7402402;19;20032;-66
2022/03/10 09:41:33;;;;;;;43.33;23.95;;;;;;;4.25;66.27;102541.72;7398883;19;20025;-66
2022/03/10 09:44:02;;;;;;;38.63;21.55;;;;;;;4.35;66.20;102535.97;7398934;19;20428;-65
2022/03/10 09:46:30;;;;;;;44.97;24.77;;;;;;;4.46;66.05;102541.53;7399450;19;20019;-65
2022/03/10 09:48:58;;;;;;;39.55;22.52;;;;;;;4.59;65.71;102541.91;7401646;19;20026;-65
2022/03/10 09:51:27;;;;;;;35.47;21.17;;;;;;;4.70;65.64;102541.44;7401310;19;20018;-66
2022/03/10 09:53:58;;;;;;;37.15;21.70;;;;;;;4.81;65.63;102546.97;7398422;19;20026;-64
2022/03/10 09:56:26;;;;;;;37.20;21.35;;;;;;;4.93;65.51;102541.28;7398960;19;20031;-66
2022/03/10 09:58:55;;;;;;;36.58;20.25;;;;;;;5.05;65.40;102544.25;7398849;19;20019;-65
2022/03/10 10:01:23;;;;;;;35.08;21.80;;;;;;;5.16;65.00;102544.56;7399117;19;20023;-64
2022/03/10 10:03:51;;;;;;;34.95;21.77;;;;;;;5.27;65.07;102542.28;7398006;19;20536;-66
2022/03/10 10:06:19;;;;;;;35.83;20.33;;;;;;;5.35;64.75;102543.38;7397753;19;20471;-65
2022/03/10 10:08:59;;;;;;;38.15;20.50;;;;;;;5.48;64.65;102539.38;7398052;19;20019;-65
2022/03/10 10:11:34;;;;;;;33.42;20.25;;;;;;;5.59;64.30;102541.44;7398441;19;20026;-65
2022/03/10 10:14:03;;;;;;;31.02;19.60;;;;;;;5.67;64.30;102542.50;7397940;19;20025;-65
2022/03/10 10:16:31;;;;;;;30.42;18.35;;;;;;;5.77;64.19;102544.50;7399978;19;20023;-64
2022/03/10 10:19:00;;;;;;;32.65;19.00;;;;;;;5.88;64.13;102539.59;7400507;19;20023;-66
2022/03/10 10:21:29;;;;;;;30.73;18.33;;;;;;;6.00;64.01;102533.88;7399422;19;20367;-65
2022/03/10 10:24:00;;;;;;;31.02;18.00;;;;;;;6.10;63.81;102527.16;7397553;19;20024;-65
2022/03/10 10:26:31;;;;;;;32.60;18.23;;;;;;;6.19;63.49;102530.00;7397933;19;20019;-65
2022/03/10 10:28:59;;;;;;;28.85;17.30;;;;;;;6.29;63.45;102524.19;7398102;19;20018;-66
2022/03/10 10:31:27;;;;;;;26.98;15.80;;;;;;;6.39;63.18;102524.41;7400278;19;20014;-65
2022/03/10 10:34:01;;;;;;;24.73;14.35;;;;;;;6.46;62.36;102528.94;7397447;19;20022;-66
2022/03/10 10:36:30;;;;;;;22.13;13.27;;;;;;;6.54;62.23;102542.16;7397548;19;20019;-65
2022/03/10 10:39:21;;;;;;;23.92;14.75;;;;;;;6.60;61.92;102530.13;7397390;19;20015;-65
2022/03/10 10:41:49;;;;;;;28.08;15.15;;;;;;;6.69;61.83;102530.34;7397735;19;20018;-65
2022/03/10 10:44:20;;;;;;;21.23;12.85;;;;;;;6.78;61.74;102526.19;7399497;19;20015;-65
2022/03/10 10:46:51;;;;;;;19.30;12.57;;;;;;;6.85;61.33;102530.69;7396865;19;20018;-65
2022/03/10 10:49:20;;;;;;;20.38;11.35;;;;;;;6.92;60.68;102524.75;7400120;19;20019;-66
2022/03/10 10:51:58;;;;;;;20.17;11.32;;;;;;;7.00;60.60;102532.75;7396842;19;20365;-65
2022/03/10 10:54:31;;;;;;;16.73;10.88;;;;;;;7.07;60.18;102531.16;7397759;19;20074;-66
2022/03/10 10:57:02;;;;;;;21.55;12.30;;;;;;;7.14;59.34;102525.22;7400398;19;20033;-66
2022/03/10 10:59:32;;;;;;;22.20;13.40;;;;;;;7.21;59.79;102524.50;7397201;19;20018;-65
2022/03/10 11:02:08;;;;;;;18.58;11.77;;;;;;;7.29;59.12;102525.56;7396817;19;20018;-65
2022/03/10 11:04:37;;;;;;;21.45;12.57;;;;;;;7.39;58.82;102525.72;7399763;19;20339;-66
2022/03/10 11:07:09;;;;;;;22.30;13.50;;;;;;;7.48;58.47;102520.69;7397055;19;20014;-65
2022/03/10 11:09:41;;;;;;;25.55;14.30;;;;;;;7.58;58.42;102519.13;7399092;19;20031;-65
2022/03/10 11:12:13;;;;;;;25.17;15.65;;;;;;;7.64;58.49;102514.91;7398608;19;20369;-65
2022/03/10 11:14:42;;;;;;;25.02;16.05;;;;;;;7.71;58.44;102521.13;7398885;19;20011;-65
2022/03/10 11:17:11;;;;;;;27.10;16.48;;;;;;;7.74;58.01;102520.31;7398389;19;20014;-65
2022/03/10 11:19:41;;;;;;;30.45;17.30;;;;;;;7.74;58.27;102515.09;7395558;19;20321;-65
2022/03/10 11:22:17;;;;;;;23.42;15.20;;;;;;;7.74;58.13;102512.47;7394951;19;20028;-65
2022/03/10 11:25:12;;;;;;;28.02;17.10;;;;;;;7.75;57.41;102515.09;7396185;19;20029;-65
2022/03/10 11:27:45;;;;;;;25.92;16.95;;;;;;;7.77;57.98;102515.13;7394556;19;20483;-65